Weather at Little Hands Airport [CLOSED]

Public forecast

Using degrees Fahrenheit for public forecast. Weather courtesy of forecast.io.

Closest aviation weather report (METAR) to Little Hands Airport

Closest report is Hayward Executive Airport, 9.7 nm (18.0 km) SSW.

2024/05/24 19:54 (retrieved 8 minutes ago)

KHWD 241954Z 26012KT 10SM OVC022 15/08 A2995 RMK AO2 SLP150 T01500083

Closest aviation forecast (TAF) to Little Hands Airport

Closest forecast is Metropolitan Oakland International Airport, 10.4 nm (19.3 km) WSW.

2024/05/24 18:18 Ammendment (retrieved 2 hours ago)

TAF AMD KOAK 241816Z 2418/2524 26014KT P6SM BKN010 FM242200 26018G26KT P6SM FEW030 FM250400 27018KT P6SM BKN030 FM250800 26012KT P6SM OVC010 FM252000 25015KT P6SM SCT020